sensor_id;sensor_type;location;lat;lon;timestamp;P1;durP1;ratioP1;P2;durP2;ratioP2
76021;SDS011;64718;52.124;6.226;2023-04-25T00:01:56;6.97;;;2.13;;
76021;SDS011;64718;52.124;6.226;2023-04-25T00:04:24;8.15;;;2.20;;
76021;SDS011;64718;52.124;6.226;2023-04-25T00:06:50;7.20;;;2.20;;
76021;SDS011;64718;52.124;6.226;2023-04-25T00:09:18;8.50;;;1.85;;
76021;SDS011;64718;52.124;6.226;2023-04-25T00:11:44;8.65;;;2.00;;
76021;SDS011;64718;52.124;6.226;2023-04-25T00:14:11;6.35;;;1.70;;
76021;SDS011;64718;52.124;6.226;2023-04-25T00:16:37;10.65;;;2.25;;
76021;SDS011;64718;52.124;6.226;2023-04-25T00:19:06;5.95;;;1.98;;
76021;SDS011;64718;52.124;6.226;2023-04-25T00:21:34;5.72;;;1.92;;
76021;SDS011;64718;52.124;6.226;2023-04-25T00:24:02;7.75;;;2.38;;
76021;SDS011;64718;52.124;6.226;2023-04-25T00:26:29;9.45;;;1.90;;
76021;SDS011;64718;52.124;6.226;2023-04-25T00:28:56;8.05;;;2.30;;
76021;SDS011;64718;52.124;6.226;2023-04-25T00:31:22;8.35;;;2.45;;
76021;SDS011;64718;52.124;6.226;2023-04-25T00:33:49;9.95;;;2.40;;
76021;SDS011;64718;52.124;6.226;2023-04-25T00:36:15;6.07;;;2.00;;
76021;SDS011;64718;52.124;6.226;2023-04-25T00:38:44;8.23;;;2.15;;
76021;SDS011;64718;52.124;6.226;2023-04-25T00:41:11;11.02;;;2.83;;
76021;SDS011;64718;52.124;6.226;2023-04-25T00:43:37;10.10;;;1.85;;
76021;SDS011;64718;52.124;6.226;2023-04-25T00:46:06;9.93;;;2.00;;
76021;SDS011;64718;52.124;6.226;2023-04-25T00:48:32;4.82;;;1.83;;
76021;SDS011;64718;52.124;6.226;2023-04-25T00:50:59;4.70;;;1.95;;
76021;SDS011;64718;52.124;6.226;2023-04-25T00:53:26;8.60;;;1.80;;
76021;SDS011;64718;52.124;6.226;2023-04-25T00:55:55;7.80;;;2.13;;
76021;SDS011;64718;52.124;6.226;2023-04-25T00:58:22;5.97;;;2.33;;
76021;SDS011;64718;52.124;6.226;2023-04-25T01:00:50;9.07;;;2.88;;
76021;SDS011;64718;52.124;6.226;2023-04-25T01:03:17;9.43;;;2.63;;
76021;SDS011;64718;52.124;6.226;2023-04-25T01:05:46;10.35;;;2.95;;
76021;SDS011;64718;52.124;6.226;2023-04-25T01:08:13;10.38;;;2.60;;
76021;SDS011;64718;52.124;6.226;2023-04-25T01:10:40;9.07;;;2.83;;
76021;SDS011;64718;52.124;6.226;2023-04-25T01:13:08;11.73;;;2.30;;
76021;SDS011;64718;52.124;6.226;2023-04-25T01:15:34;9.00;;;2.58;;
76021;SDS011;64718;52.124;6.226;2023-04-25T01:18:01;8.60;;;2.08;;
76021;SDS011;64718;52.124;6.226;2023-04-25T01:20:29;7.57;;;2.53;;
76021;SDS011;64718;52.124;6.226;2023-04-25T01:22:59;8.88;;;2.22;;
76021;SDS011;64718;52.124;6.226;2023-04-25T01:25:27;8.85;;;2.35;;
76021;SDS011;64718;52.124;6.226;2023-04-25T01:27:54;6.93;;;2.10;;
76021;SDS011;64718;52.124;6.226;2023-04-25T01:30:21;9.00;;;2.67;;
76021;SDS011;64718;52.124;6.226;2023-04-25T01:32:47;7.93;;;1.90;;
76021;SDS011;64718;52.124;6.226;2023-04-25T01:35:15;9.35;;;2.45;;
76021;SDS011;64718;52.124;6.226;2023-04-25T01:37:41;7.78;;;2.13;;
76021;SDS011;64718;52.124;6.226;2023-04-25T01:40:11;9.38;;;2.45;;
76021;SDS011;64718;52.124;6.226;2023-04-25T01:42:39;6.60;;;2.28;;
76021;SDS011;64718;52.124;6.226;2023-04-25T01:45:08;11.90;;;3.22;;
76021;SDS011;64718;52.124;6.226;2023-04-25T01:47:36;9.07;;;2.47;;
76021;SDS011;64718;52.124;6.226;2023-04-25T01:50:02;9.35;;;2.63;;
76021;SDS011;64718;52.124;6.226;2023-04-25T01:52:30;9.15;;;2.80;;
76021;SDS011;64718;52.124;6.226;2023-04-25T01:54:56;10.38;;;3.25;;
76021;SDS011;64718;52.124;6.226;2023-04-25T01:57:25;10.48;;;2.72;;
76021;SDS011;64718;52.124;6.226;2023-04-25T01:59:51;7.90;;;3.08;;
76021;SDS011;64718;52.124;6.226;2023-04-25T02:02:22;5.57;;;2.10;;
76021;SDS011;64718;52.124;6.226;2023-04-25T02:04:48;9.73;;;2.55;;
76021;SDS011;64718;52.124;6.226;2023-04-25T02:07:15;10.35;;;2.55;;
76021;SDS011;64718;52.124;6.226;2023-04-25T02:09:41;11.65;;;2.42;;
76021;SDS011;64718;52.124;6.226;2023-04-25T02:12:09;17.30;;;5.68;;
76021;SDS011;64718;52.124;6.226;2023-04-25T02:14:37;14.70;;;3.33;;
76021;SDS011;64718;52.124;6.226;2023-04-25T02:17:04;12.63;;;3.63;;
76021;SDS011;64718;52.124;6.226;2023-04-25T02:19:30;12.25;;;2.55;;
76021;SDS011;64718;52.124;6.226;2023-04-25T02:21:57;11.00;;;2.70;;
76021;SDS011;64718;52.124;6.226;2023-04-25T02:24:23;10.10;;;3.30;;
76021;SDS011;64718;52.124;6.226;2023-04-25T02:26:50;14.63;;;3.50;;
76021;SDS011;64718;52.124;6.226;2023-04-25T02:29:17;11.15;;;3.17;;
76021;SDS011;64718;52.124;6.226;2023-04-25T02:31:45;9.73;;;3.28;;
76021;SDS011;64718;52.124;6.226;2023-04-25T02:34:12;11.50;;;4.05;;
76021;SDS011;64718;52.124;6.226;2023-04-25T02:36:38;10.13;;;3.75;;
76021;SDS011;64718;52.124;6.226;2023-04-25T02:39:05;9.70;;;2.60;;
76021;SDS011;64718;52.124;6.226;2023-04-25T02:41:31;21.17;;;3.30;;
76021;SDS011;64718;52.124;6.226;2023-04-25T02:43:58;12.25;;;2.97;;
76021;SDS011;64718;52.124;6.226;2023-04-25T02:46:24;7.93;;;2.85;;
76021;SDS011;64718;52.124;6.226;2023-04-25T02:48:52;17.25;;;3.08;;
76021;SDS011;64718;52.124;6.226;2023-04-25T02:51:19;11.80;;;3.80;;
76021;SDS011;64718;52.124;6.226;2023-04-25T02:53:45;8.90;;;2.70;;
76021;SDS011;64718;52.124;6.226;2023-04-25T02:56:12;18.92;;;3.28;;
76021;SDS011;64718;52.124;6.226;2023-04-25T02:58:38;11.13;;;3.30;;
76021;SDS011;64718;52.124;6.226;2023-04-25T03:01:05;15.18;;;3.38;;
76021;SDS011;64718;52.124;6.226;2023-04-25T03:03:31;12.40;;;3.72;;
76021;SDS011;64718;52.124;6.226;2023-04-25T03:05:59;10.55;;;3.63;;
76021;SDS011;64718;52.124;6.226;2023-04-25T03:08:26;9.65;;;2.80;;
76021;SDS011;64718;52.124;6.226;2023-04-25T03:10:57;11.65;;;3.00;;
76021;SDS011;64718;52.124;6.226;2023-04-25T03:13:23;9.73;;;2.67;;
76021;SDS011;64718;52.124;6.226;2023-04-25T03:15:50;14.20;;;3.53;;
76021;SDS011;64718;52.124;6.226;2023-04-25T03:18:17;19.45;;;3.20;;
76021;SDS011;64718;52.124;6.226;2023-04-25T03:20:43;10.52;;;2.60;;
76021;SDS011;64718;52.124;6.226;2023-04-25T03:23:11;13.82;;;2.60;;
76021;SDS011;64718;52.124;6.226;2023-04-25T03:25:38;16.65;;;3.60;;
76021;SDS011;64718;52.124;6.226;2023-04-25T03:28:04;13.60;;;3.03;;
76021;SDS011;64718;52.124;6.226;2023-04-25T03:30:31;13.23;;;2.88;;
76021;SDS011;64718;52.124;6.226;2023-04-25T03:32:57;13.48;;;3.20;;
76021;SDS011;64718;52.124;6.226;2023-04-25T03:35:24;12.18;;;4.22;;
76021;SDS011;64718;52.124;6.226;2023-04-25T03:37:51;12.80;;;3.00;;
76021;SDS011;64718;52.124;6.226;2023-04-25T03:40:18;11.73;;;3.33;;
76021;SDS011;64718;52.124;6.226;2023-04-25T03:42:45;8.60;;;2.97;;
76021;SDS011;64718;52.124;6.226;2023-04-25T03:45:11;9.32;;;3.33;;
76021;SDS011;64718;52.124;6.226;2023-04-25T03:47:38;13.93;;;4.00;;
76021;SDS011;64718;52.124;6.226;2023-04-25T03:50:05;16.48;;;3.75;;
76021;SDS011;64718;52.124;6.226;2023-04-25T03:52:32;10.75;;;2.58;;
76021;SDS011;64718;52.124;6.226;2023-04-25T03:54:59;11.05;;;3.58;;
76021;SDS011;64718;52.124;6.226;2023-04-25T03:57:26;14.48;;;3.17;;
76021;SDS011;64718;52.124;6.226;2023-04-25T03:59:53;12.63;;;2.95;;
76021;SDS011;64718;52.124;6.226;2023-04-25T04:02:19;21.02;;;3.00;;
76021;SDS011;64718;52.124;6.226;2023-04-25T04:04:46;10.38;;;2.92;;
76021;SDS011;64718;52.124;6.226;2023-04-25T04:07:12;10.73;;;2.63;;
76021;SDS011;64718;52.124;6.226;2023-04-25T04:09:39;14.77;;;3.85;;
76021;SDS011;64718;52.124;6.226;2023-04-25T04:12:06;10.73;;;3.90;;
76021;SDS011;64718;52.124;6.226;2023-04-25T04:14:34;16.60;;;2.78;;
76021;SDS011;64718;52.124;6.226;2023-04-25T04:17:00;13.95;;;3.63;;
76021;SDS011;64718;52.124;6.226;2023-04-25T04:19:27;7.03;;;2.17;;
76021;SDS011;64718;52.124;6.226;2023-04-25T04:21:53;6.63;;;1.90;;
76021;SDS011;64718;52.124;6.226;2023-04-25T04:24:20;4.53;;;1.23;;
76021;SDS011;64718;52.124;6.226;2023-04-25T04:26:46;4.20;;;1.75;;
76021;SDS011;64718;52.124;6.226;2023-04-25T04:29:13;7.78;;;1.90;;
76021;SDS011;64718;52.124;6.226;2023-04-25T04:31:47;5.07;;;1.42;;
76021;SDS011;64718;52.124;6.226;2023-04-25T04:34:14;4.30;;;1.23;;
76021;SDS011;64718;52.124;6.226;2023-04-25T04:36:41;5.65;;;1.65;;
76021;SDS011;64718;52.124;6.226;2023-04-25T04:39:08;7.00;;;1.27;;
76021;SDS011;64718;52.124;6.226;2023-04-25T04:41:36;4.20;;;1.77;;
76021;SDS011;64718;52.124;6.226;2023-04-25T04:44:02;7.80;;;1.52;;
76021;SDS011;64718;52.124;6.226;2023-04-25T04:46:29;4.25;;;1.40;;
76021;SDS011;64718;52.124;6.226;2023-04-25T04:48:57;3.15;;;1.05;;
76021;SDS011;64718;52.124;6.226;2023-04-25T04:51:24;7.07;;;2.00;;
76021;SDS011;64718;52.124;6.226;2023-04-25T04:53:50;6.50;;;1.63;;
76021;SDS011;64718;52.124;6.226;2023-04-25T04:56:17;7.72;;;2.47;;
76021;SDS011;64718;52.124;6.226;2023-04-25T04:58:45;6.25;;;2.20;;
76021;SDS011;64718;52.124;6.226;2023-04-25T05:01:14;12.55;;;3.20;;
76021;SDS011;64718;52.124;6.226;2023-04-25T05:03:41;10.20;;;2.67;;
76021;SDS011;64718;52.124;6.226;2023-04-25T05:06:08;9.00;;;3.15;;
76021;SDS011;64718;52.124;6.226;2023-04-25T05:08:35;7.78;;;2.33;;
76021;SDS011;64718;52.124;6.226;2023-04-25T05:11:02;7.60;;;3.95;;
76021;SDS011;64718;52.124;6.226;2023-04-25T05:13:29;8.68;;;2.28;;
76021;SDS011;64718;52.124;6.226;2023-04-25T05:15:55;10.32;;;2.90;;
76021;SDS011;64718;52.124;6.226;2023-04-25T05:18:22;13.07;;;3.58;;
76021;SDS011;64718;52.124;6.226;2023-04-25T05:20:48;6.28;;;2.58;;
76021;SDS011;64718;52.124;6.226;2023-04-25T05:23:16;12.05;;;3.33;;
76021;SDS011;64718;52.124;6.226;2023-04-25T05:25:43;8.98;;;2.35;;
76021;SDS011;64718;52.124;6.226;2023-04-25T05:28:10;9.90;;;2.83;;
76021;SDS011;64718;52.124;6.226;2023-04-25T05:30:38;9.50;;;2.70;;
76021;SDS011;64718;52.124;6.226;2023-04-25T05:33:04;9.35;;;3.10;;
76021;SDS011;64718;52.124;6.226;2023-04-25T05:35:31;10.35;;;2.83;;
76021;SDS011;64718;52.124;6.226;2023-04-25T05:37:58;4.55;;;1.85;;
76021;SDS011;64718;52.124;6.226;2023-04-25T05:40:26;6.85;;;1.85;;
76021;SDS011;64718;52.124;6.226;2023-04-25T05:42:53;11.82;;;2.70;;
76021;SDS011;64718;52.124;6.226;2023-04-25T05:45:19;3.13;;;1.50;;
76021;SDS011;64718;52.124;6.226;2023-04-25T05:47:46;4.88;;;1.42;;
76021;SDS011;64718;52.124;6.226;2023-04-25T05:50:12;4.93;;;1.20;;
76021;SDS011;64718;52.124;6.226;2023-04-25T05:52:39;3.40;;;1.20;;
76021;SDS011;64718;52.124;6.226;2023-04-25T05:55:05;6.60;;;2.10;;
76021;SDS011;64718;52.124;6.226;2023-04-25T05:57:33;2.45;;;0.88;;
76021;SDS011;64718;52.124;6.226;2023-04-25T06:00:00;3.55;;;1.05;;
76021;SDS011;64718;52.124;6.226;2023-04-25T06:02:28;6.60;;;1.63;;
76021;SDS011;64718;52.124;6.226;2023-04-25T06:04:54;5.32;;;1.30;;
76021;SDS011;64718;52.124;6.226;2023-04-25T06:07:21;2.65;;;0.93;;
76021;SDS011;64718;52.124;6.226;2023-04-25T06:09:48;4.03;;;1.20;;
76021;SDS011;64718;52.124;6.226;2023-04-25T06:12:16;4.13;;;1.75;;
76021;SDS011;64718;52.124;6.226;2023-04-25T06:14:43;4.70;;;1.23;;
76021;SDS011;64718;52.124;6.226;2023-04-25T06:17:10;3.40;;;0.90;;
76021;SDS011;64718;52.124;6.226;2023-04-25T06:19:36;4.35;;;0.82;;
76021;SDS011;64718;52.124;6.226;2023-04-25T06:22:03;5.40;;;0.95;;
76021;SDS011;64718;52.124;6.226;2023-04-25T06:24:29;3.70;;;0.95;;
76021;SDS011;64718;52.124;6.226;2023-04-25T06:26:56;3.88;;;0.93;;
76021;SDS011;64718;52.124;6.226;2023-04-25T06:29:22;6.95;;;1.20;;
76021;SDS011;64718;52.124;6.226;2023-04-25T06:31:50;2.85;;;0.88;;
76021;SDS011;64718;52.124;6.226;2023-04-25T06:34:17;2.70;;;1.00;;
76021;SDS011;64718;52.124;6.226;2023-04-25T06:36:44;3.97;;;1.38;;
76021;SDS011;64718;52.124;6.226;2023-04-25T06:39:10;1.02;;;0.70;;
76021;SDS011;64718;52.124;6.226;2023-04-25T06:41:37;2.90;;;0.70;;
76021;SDS011;64718;52.124;6.226;2023-04-25T06:44:03;6.05;;;0.75;;
76021;SDS011;64718;52.124;6.226;2023-04-25T06:46:30;1.77;;;0.65;;
76021;SDS011;64718;52.124;6.226;2023-04-25T06:48:58;4.95;;;1.00;;
76021;SDS011;64718;52.124;6.226;2023-04-25T06:51:24;4.07;;;1.70;;
76021;SDS011;64718;52.124;6.226;2023-04-25T06:53:54;4.40;;;1.00;;
76021;SDS011;64718;52.124;6.226;2023-04-25T06:56:20;3.67;;;1.10;;
76021;SDS011;64718;52.124;6.226;2023-04-25T06:58:48;3.45;;;1.30;;
76021;SDS011;64718;52.124;6.226;2023-04-25T07:01:14;3.47;;;1.00;;
76021;SDS011;64718;52.124;6.226;2023-04-25T07:03:41;3.63;;;1.95;;
76021;SDS011;64718;52.124;6.226;2023-04-25T07:06:09;3.35;;;0.95;;
76021;SDS011;64718;52.124;6.226;2023-04-25T07:08:36;6.55;;;1.38;;
76021;SDS011;64718;52.124;6.226;2023-04-25T07:11:03;4.07;;;1.65;;
76021;SDS011;64718;52.124;6.226;2023-04-25T07:13:29;2.90;;;1.02;;
76021;SDS011;64718;52.124;6.226;2023-04-25T07:15:56;3.53;;;1.38;;
76021;SDS011;64718;52.124;6.226;2023-04-25T07:18:22;6.25;;;2.03;;
76021;SDS011;64718;52.124;6.226;2023-04-25T07:20:49;6.53;;;1.67;;
76021;SDS011;64718;52.124;6.226;2023-04-25T07:23:17;4.07;;;1.48;;
76021;SDS011;64718;52.124;6.226;2023-04-25T07:25:43;5.50;;;1.67;;
76021;SDS011;64718;52.124;6.226;2023-04-25T07:28:10;4.57;;;1.95;;
76021;SDS011;64718;52.124;6.226;2023-04-25T07:30:36;3.40;;;1.27;;
76021;SDS011;64718;52.124;6.226;2023-04-25T07:33:03;3.38;;;1.08;;
76021;SDS011;64718;52.124;6.226;2023-04-25T07:35:29;4.85;;;0.80;;
76021;SDS011;64718;52.124;6.226;2023-04-25T07:37:56;4.25;;;1.05;;
76021;SDS011;64718;52.124;6.226;2023-04-25T07:40:25;6.85;;;1.23;;
76021;SDS011;64718;52.124;6.226;2023-04-25T07:42:52;4.20;;;3.00;;
76021;SDS011;64718;52.124;6.226;2023-04-25T07:45:18;3.00;;;2.05;;
76021;SDS011;64718;52.124;6.226;2023-04-25T07:47:45;3.90;;;1.17;;
76021;SDS011;64718;52.124;6.226;2023-04-25T07:50:11;4.68;;;1.65;;
76021;SDS011;64718;52.124;6.226;2023-04-25T07:52:38;3.72;;;1.80;;
76021;SDS011;64718;52.124;6.226;2023-04-25T07:55:05;1.83;;;0.70;;
76021;SDS011;64718;52.124;6.226;2023-04-25T07:57:32;6.53;;;3.42;;
76021;SDS011;64718;52.124;6.226;2023-04-25T07:59:59;4.97;;;1.08;;
76021;SDS011;64718;52.124;6.226;2023-04-25T08:02:25;4.40;;;1.08;;
76021;SDS011;64718;52.124;6.226;2023-04-25T08:04:53;5.43;;;1.15;;
76021;SDS011;64718;52.124;6.226;2023-04-25T08:07:19;4.22;;;1.92;;
76021;SDS011;64718;52.124;6.226;2023-04-25T08:09:46;5.25;;;0.90;;
76021;SDS011;64718;52.124;6.226;2023-04-25T08:12:13;5.38;;;0.70;;
76021;SDS011;64718;52.124;6.226;2023-04-25T08:14:40;5.88;;;1.73;;
76021;SDS011;64718;52.124;6.226;2023-04-25T08:17:07;7.43;;;1.10;;
76021;SDS011;64718;52.124;6.226;2023-04-25T08:19:33;5.80;;;0.90;;
76021;SDS011;64718;52.124;6.226;2023-04-25T08:22:00;3.45;;;0.73;;
76021;SDS011;64718;52.124;6.226;2023-04-25T08:24:27;0.55;;;0.10;;
76021;SDS011;64718;52.124;6.226;2023-04-25T08:26:53;2.03;;;0.63;;
76021;SDS011;64718;52.124;6.226;2023-04-25T08:29:20;2.17;;;0.20;;
76021;SDS011;64718;52.124;6.226;2023-04-25T08:31:49;2.25;;;1.10;;
76021;SDS011;64718;52.124;6.226;2023-04-25T08:34:17;4.32;;;0.50;;
76021;SDS011;64718;52.124;6.226;2023-04-25T08:36:44;2.58;;;0.32;;
76021;SDS011;64718;52.124;6.226;2023-04-25T08:39:11;0.47;;;0.30;;
76021;SDS011;64718;52.124;6.226;2023-04-25T08:41:38;2.17;;;0.77;;
76021;SDS011;64718;52.124;6.226;2023-04-25T08:44:06;1.15;;;0.52;;
76021;SDS011;64718;52.124;6.226;2023-04-25T08:46:35;4.32;;;1.05;;
76021;SDS011;64718;52.124;6.226;2023-04-25T08:49:05;1.40;;;0.32;;
76021;SDS011;64718;52.124;6.226;2023-04-25T08:51:34;1.55;;;0.65;;
76021;SDS011;64718;52.124;6.226;2023-04-25T08:54:11;1.05;;;0.43;;
76021;SDS011;64718;52.124;6.226;2023-04-25T08:56:38;0.68;;;0.28;;
76021;SDS011;64718;52.124;6.226;2023-04-25T08:59:06;3.88;;;0.60;;
76021;SDS011;64718;52.124;6.226;2023-04-25T09:01:34;0.95;;;0.50;;
76021;SDS011;64718;52.124;6.226;2023-04-25T09:04:01;2.47;;;0.38;;
76021;SDS011;64718;52.124;6.226;2023-04-25T09:06:29;3.17;;;0.50;;
76021;SDS011;64718;52.124;6.226;2023-04-25T09:09:00;3.15;;;0.70;;
76021;SDS011;64718;52.124;6.226;2023-04-25T09:11:28;2.03;;;0.43;;
76021;SDS011;64718;52.124;6.226;2023-04-25T09:14:09;1.08;;;0.50;;
76021;SDS011;64718;52.124;6.226;2023-04-25T09:16:51;3.88;;;1.25;;
76021;SDS011;64718;52.124;6.226;2023-04-25T09:19:24;2.08;;;0.90;;
76021;SDS011;64718;52.124;6.226;2023-04-25T09:21:54;6.15;;;0.85;;
76021;SDS011;64718;52.124;6.226;2023-04-25T09:24:29;3.88;;;1.13;;
76021;SDS011;64718;52.124;6.226;2023-04-25T09:26:59;1.70;;;0.82;;
76021;SDS011;64718;52.124;6.226;2023-04-25T09:29:30;4.93;;;0.90;;
76021;SDS011;64718;52.124;6.226;2023-04-25T09:32:13;2.92;;;1.08;;
76021;SDS011;64718;52.124;6.226;2023-04-25T09:34:42;3.50;;;1.52;;
76021;SDS011;64718;52.124;6.226;2023-04-25T09:37:11;1.65;;;0.45;;
76021;SDS011;64718;52.124;6.226;2023-04-25T09:39:42;1.60;;;0.40;;
76021;SDS011;64718;52.124;6.226;2023-04-25T09:42:10;0.95;;;0.10;;
76021;SDS011;64718;52.124;6.226;2023-04-25T09:44:37;1.65;;;0.45;;
76021;SDS011;64718;52.124;6.226;2023-04-25T09:47:09;1.25;;;0.20;;
76021;SDS011;64718;52.124;6.226;2023-04-25T09:49:38;0.70;;;0.20;;
76021;SDS011;64718;52.124;6.226;2023-04-25T09:54:33;1.55;;;1.45;;
76021;SDS011;64718;52.124;6.226;2023-04-25T09:57:01;1.33;;;0.20;;
76021;SDS011;64718;52.124;6.226;2023-04-25T09:59:36;1.42;;;0.50;;
76021;SDS011;64718;52.124;6.226;2023-04-25T10:02:05;1.13;;;0.32;;
76021;SDS011;64718;52.124;6.226;2023-04-25T10:04:34;2.97;;;0.30;;
76021;SDS011;64718;52.124;6.226;2023-04-25T10:07:01;4.03;;;0.65;;
76021;SDS011;64718;52.124;6.226;2023-04-25T10:09:29;1.38;;;0.32;;
76021;SDS011;64718;52.124;6.226;2023-04-25T10:12:00;3.08;;;0.82;;
76021;SDS011;64718;52.124;6.226;2023-04-25T10:14:26;3.38;;;0.50;;
76021;SDS011;64718;52.124;6.226;2023-04-25T10:16:53;2.53;;;0.55;;
76021;SDS011;64718;52.124;6.226;2023-04-25T10:19:22;2.58;;;0.50;;
76021;SDS011;64718;52.124;6.226;2023-04-25T10:21:50;3.92;;;0.60;;
76021;SDS011;64718;52.124;6.226;2023-04-25T10:24:20;3.72;;;0.50;;
76021;SDS011;64718;52.124;6.226;2023-04-25T10:26:49;2.78;;;0.40;;
76021;SDS011;64718;52.124;6.226;2023-04-25T10:29:21;2.78;;;0.80;;
76021;SDS011;64718;52.124;6.226;2023-04-25T10:31:50;3.75;;;1.25;;
76021;SDS011;64718;52.124;6.226;2023-04-25T10:34:17;4.18;;;0.63;;
76021;SDS011;64718;52.124;6.226;2023-04-25T10:36:47;1.38;;;0.40;;
76021;SDS011;64718;52.124;6.226;2023-04-25T10:39:19;1.30;;;0.40;;
76021;SDS011;64718;52.124;6.226;2023-04-25T10:41:52;2.17;;;1.05;;
76021;SDS011;64718;52.124;6.226;2023-04-25T10:44:21;3.83;;;1.02;;
76021;SDS011;64718;52.124;6.226;2023-04-25T10:46:48;3.22;;;0.60;;
76021;SDS011;64718;52.124;6.226;2023-04-25T10:49:33;4.00;;;0.65;;
76021;SDS011;64718;52.124;6.226;2023-04-25T10:52:13;4.80;;;0.80;;
76021;SDS011;64718;52.124;6.226;2023-04-25T10:54:41;4.50;;;0.75;;
76021;SDS011;64718;52.124;6.226;2023-04-25T10:59:57;2.53;;;0.57;;
76021;SDS011;64718;52.124;6.226;2023-04-25T11:02:26;2.65;;;0.40;;
76021;SDS011;64718;52.124;6.226;2023-04-25T11:04:53;2.58;;;0.38;;
76021;SDS011;64718;52.124;6.226;2023-04-25T11:07:23;7.32;;;1.05;;
76021;SDS011;64718;52.124;6.226;2023-04-25T11:09:57;1.27;;;0.30;;
76021;SDS011;64718;52.124;6.226;2023-04-25T11:12:30;6.50;;;0.73;;
76021;SDS011;64718;52.124;6.226;2023-04-25T11:15:00;3.20;;;0.60;;
76021;SDS011;64718;52.124;6.226;2023-04-25T11:17:28;4.50;;;1.23;;
76021;SDS011;64718;52.124;6.226;2023-04-25T11:19:55;4.18;;;0.60;;
76021;SDS011;64718;52.124;6.226;2023-04-25T11:22:22;3.88;;;0.40;;
76021;SDS011;64718;52.124;6.226;2023-04-25T11:24:49;4.03;;;0.70;;
76021;SDS011;64718;52.124;6.226;2023-04-25T11:27:16;1.60;;;0.60;;
76021;SDS011;64718;52.124;6.226;2023-04-25T11:29:44;2.15;;;0.43;;
76021;SDS011;64718;52.124;6.226;2023-04-25T11:32:12;3.88;;;0.70;;
76021;SDS011;64718;52.124;6.226;2023-04-25T11:34:42;2.45;;;0.73;;
76021;SDS011;64718;52.124;6.226;2023-04-25T11:37:09;3.22;;;0.60;;
76021;SDS011;64718;52.124;6.226;2023-04-25T11:39:36;5.57;;;0.60;;
76021;SDS011;64718;52.124;6.226;2023-04-25T11:42:03;4.28;;;0.45;;
76021;SDS011;64718;52.124;6.226;2023-04-25T11:44:30;2.40;;;0.60;;
76021;SDS011;64718;52.124;6.226;2023-04-25T11:46:58;2.65;;;0.63;;
76021;SDS011;64718;52.124;6.226;2023-04-25T11:49:25;2.20;;;0.40;;
76021;SDS011;64718;52.124;6.226;2023-04-25T11:51:56;1.88;;;0.30;;
76021;SDS011;64718;52.124;6.226;2023-04-25T11:54:23;2.25;;;0.40;;
76021;SDS011;64718;52.124;6.226;2023-04-25T11:56:50;2.13;;;0.30;;
76021;SDS011;64718;52.124;6.226;2023-04-25T11:59:16;4.57;;;0.85;;
76021;SDS011;64718;52.124;6.226;2023-04-25T12:01:47;1.50;;;0.90;;
76021;SDS011;64718;52.124;6.226;2023-04-25T12:04:16;2.50;;;0.40;;
76021;SDS011;64718;52.124;6.226;2023-04-25T12:06:46;2.00;;;0.57;;
76021;SDS011;64718;52.124;6.226;2023-04-25T12:09:15;2.22;;;0.50;;
76021;SDS011;64718;52.124;6.226;2023-04-25T12:11:44;3.08;;;0.40;;
76021;SDS011;64718;52.124;6.226;2023-04-25T12:14:11;2.10;;;0.40;;
76021;SDS011;64718;52.124;6.226;2023-04-25T12:16:41;2.15;;;0.40;;
76021;SDS011;64718;52.124;6.226;2023-04-25T12:19:08;2.78;;;0.50;;
76021;SDS011;64718;52.124;6.226;2023-04-25T12:21:36;0.75;;;0.40;;
76021;SDS011;64718;52.124;6.226;2023-04-25T12:24:09;2.53;;;0.93;;
76021;SDS011;64718;52.124;6.226;2023-04-25T12:26:50;2.83;;;0.30;;
76021;SDS011;64718;52.124;6.226;2023-04-25T12:29:18;3.28;;;0.65;;
76021;SDS011;64718;52.124;6.226;2023-04-25T12:31:45;2.80;;;0.50;;
76021;SDS011;64718;52.124;6.226;2023-04-25T12:34:12;3.05;;;0.40;;
76021;SDS011;64718;52.124;6.226;2023-04-25T12:36:40;1.10;;;0.32;;
76021;SDS011;64718;52.124;6.226;2023-04-25T12:39:07;1.17;;;0.30;;
76021;SDS011;64718;52.124;6.226;2023-04-25T12:41:33;2.92;;;0.50;;
76021;SDS011;64718;52.124;6.226;2023-04-25T12:44:00;1.50;;;0.30;;
76021;SDS011;64718;52.124;6.226;2023-04-25T12:46:26;1.23;;;0.43;;
76021;SDS011;64718;52.124;6.226;2023-04-25T12:48:53;1.77;;;0.43;;
76021;SDS011;64718;52.124;6.226;2023-04-25T12:51:20;3.22;;;0.80;;
76021;SDS011;64718;52.124;6.226;2023-04-25T12:53:51;2.10;;;0.40;;
76021;SDS011;64718;52.124;6.226;2023-04-25T12:56:18;1.88;;;0.50;;
76021;SDS011;64718;52.124;6.226;2023-04-25T12:58:44;2.88;;;0.63;;
76021;SDS011;64718;52.124;6.226;2023-04-25T13:01:13;4.50;;;0.73;;
76021;SDS011;64718;52.124;6.226;2023-04-25T13:03:39;2.33;;;0.68;;
76021;SDS011;64718;52.124;6.226;2023-04-25T13:06:07;2.13;;;0.32;;
76021;SDS011;64718;52.124;6.226;2023-04-25T13:08:33;2.08;;;0.38;;
76021;SDS011;64718;52.124;6.226;2023-04-25T13:11:03;1.17;;;0.50;;
76021;SDS011;64718;52.124;6.226;2023-04-25T13:13:29;0.52;;;0.20;;
76021;SDS011;64718;52.124;6.226;2023-04-25T13:15:56;2.78;;;0.40;;
76021;SDS011;64718;52.124;6.226;2023-04-25T13:18:23;1.33;;;0.40;;
76021;SDS011;64718;52.124;6.226;2023-04-25T13:20:51;2.03;;;0.47;;
76021;SDS011;64718;52.124;6.226;2023-04-25T13:23:18;2.63;;;0.40;;
76021;SDS011;64718;52.124;6.226;2023-04-25T13:25:45;1.52;;;0.30;;
76021;SDS011;64718;52.124;6.226;2023-04-25T13:28:13;2.70;;;0.57;;
76021;SDS011;64718;52.124;6.226;2023-04-25T13:30:40;3.03;;;0.38;;
76021;SDS011;64718;52.124;6.226;2023-04-25T13:33:07;2.83;;;1.40;;
76021;SDS011;64718;52.124;6.226;2023-04-25T13:35:34;3.08;;;0.57;;
76021;SDS011;64718;52.124;6.226;2023-04-25T13:38:02;2.50;;;1.17;;
76021;SDS011;64718;52.124;6.226;2023-04-25T13:40:29;3.08;;;0.77;;
76021;SDS011;64718;52.124;6.226;2023-04-25T13:42:55;3.70;;;0.85;;
76021;SDS011;64718;52.124;6.226;2023-04-25T13:45:23;1.50;;;0.50;;
76021;SDS011;64718;52.124;6.226;2023-04-25T13:47:50;1.65;;;0.30;;
76021;SDS011;64718;52.124;6.226;2023-04-25T13:50:16;1.30;;;0.57;;
76021;SDS011;64718;52.124;6.226;2023-04-25T13:52:43;5.72;;;0.70;;
76021;SDS011;64718;52.124;6.226;2023-04-25T13:55:10;1.42;;;0.30;;
76021;SDS011;64718;52.124;6.226;2023-04-25T13:57:36;2.92;;;0.57;;
76021;SDS011;64718;52.124;6.226;2023-04-25T14:00:04;3.15;;;0.80;;
76021;SDS011;64718;52.124;6.226;2023-04-25T14:02:35;9.52;;;0.95;;
76021;SDS011;64718;52.124;6.226;2023-04-25T14:05:01;1.67;;;0.95;;
76021;SDS011;64718;52.124;6.226;2023-04-25T14:07:29;1.55;;;0.47;;
76021;SDS011;64718;52.124;6.226;2023-04-25T14:09:56;1.27;;;0.45;;
76021;SDS011;64718;52.124;6.226;2023-04-25T14:12:23;3.08;;;0.38;;
76021;SDS011;64718;52.124;6.226;2023-04-25T14:14:50;1.25;;;0.30;;
76021;SDS011;64718;52.124;6.226;2023-04-25T14:17:17;1.67;;;0.30;;
76021;SDS011;64718;52.124;6.226;2023-04-25T14:19:45;2.83;;;1.15;;
76021;SDS011;64718;52.124;6.226;2023-04-25T14:22:13;1.38;;;0.60;;
76021;SDS011;64718;52.124;6.226;2023-04-25T14:24:40;1.98;;;0.43;;
76021;SDS011;64718;52.124;6.226;2023-04-25T14:27:07;4.85;;;1.42;;
76021;SDS011;64718;52.124;6.226;2023-04-25T14:29:33;2.78;;;0.52;;
76021;SDS011;64718;52.124;6.226;2023-04-25T14:32:00;2.75;;;0.50;;
76021;SDS011;64718;52.124;6.226;2023-04-25T14:34:27;1.77;;;0.32;;
76021;SDS011;64718;52.124;6.226;2023-04-25T14:36:55;2.53;;;0.45;;
76021;SDS011;64718;52.124;6.226;2023-04-25T14:39:21;1.13;;;0.17;;
76021;SDS011;64718;52.124;6.226;2023-04-25T14:41:48;3.63;;;0.52;;
76021;SDS011;64718;52.124;6.226;2023-04-25T14:44:14;2.85;;;0.70;;
76021;SDS011;64718;52.124;6.226;2023-04-25T14:46:41;3.20;;;0.80;;
76021;SDS011;64718;52.124;6.226;2023-04-25T14:49:07;2.28;;;0.52;;
76021;SDS011;64718;52.124;6.226;2023-04-25T14:51:34;4.30;;;0.40;;
76021;SDS011;64718;52.124;6.226;2023-04-25T14:54:02;3.95;;;0.50;;